createdAt,value
2018-12-19T00:00:06.481Z,95589.3
2018-12-19T00:01:08.901Z,95586.3
2018-12-19T00:02:11.049Z,95577.8
2018-12-19T00:03:13.477Z,95575.5
2018-12-19T00:04:15.906Z,95575.2
2018-12-19T00:05:18.060Z,95579.4
2018-12-19T00:06:19.949Z,95576.5
2018-12-19T00:07:22.378Z,95579.8
2018-12-19T00:08:24.528Z,95586.3
2018-12-19T00:09:26.993Z,95583.7
2018-12-19T00:10:29.140Z,95579.9
2018-12-19T00:11:31.580Z,95582.6
2018-12-19T00:12:33.740Z,95586.2
2018-12-19T00:13:36.166Z,95586.9
2018-12-19T00:14:38.315Z,95577.9
2018-12-19T00:15:40.468Z,95574.1
2018-12-19T00:16:42.622Z,95573.4
2018-12-19T00:17:45.041Z,95573.1
2018-12-19T00:18:47.196Z,95569.4
2018-12-19T00:19:49.362Z,95566
2018-12-19T00:20:51.516Z,95564.7
2018-12-19T00:21:53.662Z,95559.3
2018-12-19T00:22:56.103Z,95562.4
2018-12-19T00:23:57.950Z,95557.2
2018-12-19T00:25:00.119Z,95557.8
2018-12-19T00:26:02.556Z,95560.9
2018-12-19T00:27:04.698Z,95560.8
2018-12-19T00:28:07.140Z,95557.4
2018-12-19T00:29:09.288Z,95553.2
2018-12-19T00:30:11.705Z,95546.9
2018-12-19T00:31:14.129Z,95542.7
2018-12-19T00:32:16.271Z,95542.7
2018-12-19T00:33:18.423Z,95537.8
2018-12-19T00:34:20.578Z,95540.3
2018-12-19T00:35:23.011Z,95538
2018-12-19T00:36:25.177Z,95534.4
2018-12-19T00:37:27.310Z,95538.2
2018-12-19T00:38:29.747Z,95537.8
2018-12-19T00:39:32.179Z,95539.1
2018-12-19T00:40:34.610Z,95542.9
2018-12-19T00:41:37.043Z,95542.4
2018-12-19T00:42:39.464Z,95546.3
2018-12-19T00:43:41.626Z,95544.7
2018-12-19T00:44:44.050Z,95551.5
2018-12-19T00:45:46.478Z,95555.1
2018-12-19T00:46:48.918Z,95551.1
2018-12-19T00:47:51.350Z,95548.1
2018-12-19T00:48:53.767Z,95551.1
2018-12-19T00:49:55.655Z,95546.9
2018-12-19T00:50:57.811Z,95547.1
2018-12-19T00:51:59.977Z,95543.9
2018-12-19T00:53:02.394Z,95549.6
2018-12-19T00:54:04.814Z,95547.6
2018-12-19T00:55:06.963Z,95546.6
2018-12-19T00:56:09.101Z,95544.2
2018-12-19T00:57:11.529Z,95546.9
2018-12-19T00:58:13.681Z,95544.2
2018-12-19T00:59:15.812Z,95545.3
2018-12-19T01:00:18.231Z,95542.6
2018-12-19T01:01:20.651Z,95544.5
2018-12-19T01:02:23.074Z,95542
2018-12-19T01:03:25.507Z,95544.8
2018-12-19T01:04:27.637Z,95545.8
2018-12-19T01:05:29.514Z,95551.3
2018-12-19T01:06:31.652Z,95550.5
2018-12-19T01:07:33.530Z,95546.4
2018-12-19T01:08:35.949Z,95544.9
2018-12-19T01:09:38.108Z,95540.5
2018-12-19T01:10:40.531Z,95540.4
2018-12-19T01:11:42.968Z,95539.3
2018-12-19T01:12:45.131Z,95539.5
2018-12-19T01:13:47.550Z,95544.1
2018-12-19T01:14:49.972Z,95536.6
2018-12-19T01:15:51.827Z,95535.6
2018-12-19T01:16:54.250Z,95537.6
2018-12-19T01:17:56.674Z,95538.8
2018-12-19T01:18:58.802Z,95541.5
2018-12-19T01:20:00.953Z,95538.7
2018-12-19T01:21:03.111Z,95540
2018-12-19T01:22:05.538Z,95539.2
2018-12-19T01:23:07.689Z,95539
2018-12-19T01:24:09.861Z,95535.8
2018-12-19T01:25:12.266Z,95540.2
2018-12-19T01:26:14.695Z,95538.7
2018-12-19T01:27:16.859Z,95540.2
2018-12-19T01:28:19.027Z,95537.3
2018-12-19T01:29:21.438Z,95537.5
2018-12-19T01:30:23.598Z,95533.1
2018-12-19T01:31:25.757Z,95536.7
2018-12-19T01:32:28.184Z,95528.2
2018-12-19T01:33:30.312Z,95528.5
2018-12-19T01:34:32.462Z,95530.1
2018-12-19T01:35:34.903Z,95534.9
2018-12-19T01:36:37.327Z,95536.1
2018-12-19T01:37:39.754Z,95535.4
2018-12-19T01:38:42.191Z,95546.3
2018-12-19T01:39:44.623Z,95547.2
2018-12-19T01:40:46.493Z,95554.2
2018-12-19T01:41:48.917Z,95548.4
2018-12-19T01:42:51.340Z,95547.4
2018-12-19T01:43:53.512Z,95544
2018-12-19T01:44:55.657Z,95542.7
2018-12-19T01:45:58.082Z,95545.2
2018-12-19T01:47:00.227Z,95542.6
2018-12-19T01:48:02.654Z,95546.6
2018-12-19T01:49:05.081Z,95544.1
2018-12-19T01:50:07.499Z,95547.3
2018-12-19T01:51:09.641Z,95544.3
2018-12-19T01:52:11.779Z,95540.1
2018-12-19T01:53:13.921Z,95541.3
2018-12-19T01:54:16.349Z,95539.2
2018-12-19T01:55:18.515Z,95537.2
2018-12-19T01:56:20.661Z,95534.1
2018-12-19T01:57:22.791Z,95537.1
2018-12-19T01:58:24.103Z,95539.9
2018-12-19T01:59:26.257Z,95544.4
2018-12-19T02:00:28.678Z,95544.2
2018-12-19T02:01:30.839Z,95545.2
2018-12-19T02:02:32.990Z,95548.4
2018-12-19T02:03:35.410Z,95546.2
2018-12-19T02:04:37.541Z,95546.3
2018-12-19T02:05:39.695Z,95545.4
2018-12-19T02:06:41.842Z,95546.7
2018-12-19T02:07:43.991Z,95546.4
2018-12-19T02:08:46.121Z,95546.7
2018-12-19T02:09:48.272Z,95549.7
2018-12-19T02:10:50.697Z,95546.4
2018-12-19T02:11:53.115Z,95549
2018-12-19T02:12:55.531Z,95548.5
2018-12-19T02:13:57.411Z,95550.5
2018-12-19T02:14:59.832Z,95550.6
2018-12-19T02:16:02.024Z,95550.6
2018-12-19T02:17:04.442Z,95552.4
2018-12-19T02:18:06.592Z,95548.7
2018-12-19T02:19:09.019Z,95549.3
2018-12-19T02:20:11.439Z,95546.5
2018-12-19T02:21:13.591Z,95542.6
2018-12-19T02:22:16.027Z,95545
2018-12-19T02:23:18.464Z,95540.7
2018-12-19T02:24:21.069Z,95537.8
2018-12-19T02:25:23.491Z,95541.2
2018-12-19T02:26:25.912Z,95541.6
2018-12-19T02:27:28.327Z,95539.8
2018-12-19T02:28:30.759Z,95548.6
2018-12-19T02:29:32.918Z,95560.7
2018-12-19T02:30:35.343Z,95566.2
2018-12-19T02:31:37.779Z,95569.7
2018-12-19T02:32:39.938Z,95568.3
2018-12-19T02:33:42.082Z,95572.4
2018-12-19T02:34:44.503Z,95577.7
2018-12-19T02:35:46.935Z,95576.5
2018-12-19T02:36:49.099Z,95585.5
2018-12-19T02:37:51.259Z,95584.4
2018-12-19T02:38:53.684Z,95587.1
2018-12-19T02:39:55.556Z,95582.5
2018-12-19T02:40:57.978Z,95576
2018-12-19T02:42:00.139Z,95569.2
2018-12-19T02:43:02.337Z,95576.1
2018-12-19T02:44:04.491Z,95581.3
2018-12-19T02:45:06.931Z,95581.5
2018-12-19T02:46:09.353Z,95584
2018-12-19T02:47:11.773Z,95588.8
2018-12-19T02:48:14.198Z,95590.1
2018-12-19T02:49:16.623Z,95592.9
2018-12-19T02:50:18.792Z,95589.4
2018-12-19T02:51:20.663Z,95578.8
2018-12-19T02:52:22.547Z,95584.3
2018-12-19T02:53:24.402Z,95583.2
2018-12-19T02:54:26.833Z,95583.7
2018-12-19T02:55:28.981Z,95584.2
2018-12-19T02:56:31.394Z,95582.9
2018-12-19T02:57:33.842Z,95584.1
2018-12-19T02:58:36.270Z,95592.7
2018-12-19T02:59:38.161Z,95591
2018-12-19T03:00:40.596Z,95587.8
2018-12-19T03:01:42.753Z,95585.5
2018-12-19T03:02:45.180Z,95584.4
2018-12-19T03:03:47.620Z,95589.6
2018-12-19T03:04:49.761Z,95593.4
2018-12-19T03:05:52.186Z,95588.2
2018-12-19T03:06:54.612Z,95589.4
2018-12-19T03:07:57.032Z,95592
2018-12-19T03:08:59.468Z,95592.4
2018-12-19T03:10:01.733Z,95598.9
2018-12-19T03:11:04.148Z,95609.3
2018-12-19T03:12:06.051Z,95614.7
2018-12-19T03:13:08.481Z,95613.6
2018-12-19T03:14:10.912Z,95612.4
2018-12-19T03:15:13.336Z,95605.1
2018-12-19T03:16:15.771Z,95604.2
2018-12-19T03:17:18.215Z,95597.1
2018-12-19T03:18:20.361Z,95593.7
2018-12-19T03:19:22.775Z,95592.9
2018-12-19T03:20:24.928Z,95589.1
2018-12-19T03:21:27.360Z,95580.3
2018-12-19T03:22:29.511Z,95579.9
2018-12-19T03:23:31.943Z,95573
2018-12-19T03:24:34.371Z,95574.9
2018-12-19T03:25:36.521Z,95573.7
2018-12-19T03:26:38.940Z,95573.8
2018-12-19T03:27:41.082Z,95580.4
2018-12-19T03:28:43.509Z,95582.7
2018-12-19T03:29:45.940Z,95582.5
2018-12-19T03:30:48.362Z,95582.3
2018-12-19T03:31:50.785Z,95579.1
2018-12-19T03:32:53.377Z,95576
2018-12-19T03:33:55.565Z,95571.6
2018-12-19T03:34:57.993Z,95572.2
2018-12-19T03:36:01.814Z,95572.9
2018-12-19T03:37:03.962Z,95575.9
2018-12-19T03:38:06.387Z,95573
2018-12-19T03:39:08.294Z,95576.4
2018-12-19T03:40:10.439Z,95573.3
2018-12-19T03:41:12.585Z,95576
2018-12-19T03:42:14.750Z,95574.2
2018-12-19T03:43:16.899Z,95574.7
2018-12-19T03:44:19.055Z,95574.5
2018-12-19T03:45:21.479Z,95574.2
2018-12-19T03:46:23.632Z,95571.7
2018-12-19T03:47:26.056Z,95570.5
2018-12-19T03:48:28.210Z,95568.1
2018-12-19T03:49:29.834Z,95571.3
2018-12-19T03:50:32.257Z,95569.1
2018-12-19T03:51:34.117Z,95569.6
2018-12-19T03:52:36.274Z,95570.9
2018-12-19T03:53:38.419Z,95569.5
2018-12-19T03:54:40.841Z,95572.2
2018-12-19T03:55:42.995Z,95565.4
2018-12-19T03:56:45.413Z,95567.7
2018-12-19T03:57:47.837Z,95562.5
2018-12-19T03:58:50.263Z,95567.5
2018-12-19T03:59:52.679Z,95566.3
2018-12-19T04:00:54.823Z,95567.6
2018-12-19T04:01:57.243Z,95563.8
2018-12-19T04:02:59.392Z,95562.2
2018-12-19T04:04:01.804Z,95567.8
2018-12-19T04:05:03.953Z,95577.9
2018-12-19T04:06:06.368Z,95576.5
2018-12-19T04:07:08.793Z,95573.3
2018-12-19T04:08:11.224Z,95573.7
2018-12-19T04:09:13.368Z,95576.6
2018-12-19T04:10:15.796Z,95580.7
2018-12-19T04:11:17.943Z,95580.9
2018-12-19T04:12:20.371Z,95576.1
2018-12-19T04:13:22.791Z,95580.4
2018-12-19T04:14:24.936Z,95582.2
2018-12-19T04:15:27.090Z,95585.9
2018-12-19T04:16:29.519Z,95584.5
2018-12-19T04:17:31.663Z,95591.4
2018-12-19T04:18:33.828Z,95588.5
2018-12-19T04:19:35.986Z,95585.8
2018-12-19T04:20:38.133Z,95586.3
2018-12-19T04:21:40.014Z,95587.9
2018-12-19T04:22:42.435Z,95589
2018-12-19T04:23:44.854Z,95587.8
2018-12-19T04:24:47.282Z,95588.5
2018-12-19T04:25:49.699Z,95584
2018-12-19T04:26:52.125Z,95582.4
2018-12-19T04:27:54.282Z,95578.5
2018-12-19T04:28:56.441Z,95578.8
2018-12-19T04:29:58.859Z,95574.6
2018-12-19T04:31:01.275Z,95568.6
2018-12-19T04:32:03.471Z,95574.4
2018-12-19T04:33:05.888Z,95566.1
2018-12-19T04:34:08.328Z,95566.5
2018-12-19T04:35:10.755Z,95565.3
2018-12-19T04:36:13.184Z,95565.1
2018-12-19T04:37:15.692Z,95568.8
2018-12-19T04:38:18.013Z,95568.4
2018-12-19T04:39:20.527Z,95571.5
2018-12-19T04:40:22.710Z,95569.2
2018-12-19T04:41:24.620Z,95562.5
2018-12-19T04:42:26.748Z,95568.7
2018-12-19T04:43:29.213Z,95570.3
2018-12-19T04:44:31.647Z,95569
2018-12-19T04:45:34.084Z,95564.9
2018-12-19T04:46:36.528Z,95564.9
2018-12-19T04:47:38.973Z,95571.1
2018-12-19T04:48:41.144Z,95562.6
2018-12-19T04:49:43.592Z,95561.3
2018-12-19T04:50:46.624Z,95564.8
2018-12-19T04:51:49.074Z,95559.6
2018-12-19T04:52:51.502Z,95562.3
2018-12-19T04:53:53.940Z,95563
2018-12-19T04:54:56.137Z,95561.5
2018-12-19T04:55:58.288Z,95562.8
2018-12-19T04:57:00.741Z,95560.5
2018-12-19T04:58:03.183Z,95563.9
2018-12-19T04:59:05.614Z,95555.9
2018-12-19T05:00:07.490Z,95559.5
2018-12-19T05:01:09.664Z,95560
2018-12-19T05:02:12.091Z,95556.5
2018-12-19T05:03:14.524Z,95566
2018-12-19T05:04:16.398Z,95562
2018-12-19T05:05:18.821Z,95562.6
2018-12-19T05:06:21.243Z,95560.2
2018-12-19T05:07:23.669Z,95560.2
2018-12-19T05:08:26.171Z,95556.8
2018-12-19T05:09:28.585Z,95558.7
2018-12-19T05:10:31.002Z,95559.3
2018-12-19T05:11:33.430Z,95557.7
2018-12-19T05:12:35.614Z,95553.5
2018-12-19T05:13:38.036Z,95554.8
2018-12-19T05:14:40.222Z,95558.6
2018-12-19T05:15:42.633Z,95556.3
2018-12-19T05:16:45.069Z,95558.2
2018-12-19T05:17:47.261Z,95557.4
2018-12-19T05:18:49.412Z,95555.3
2018-12-19T05:19:51.576Z,95560.2
2018-12-19T05:20:53.464Z,95557.1
2018-12-19T05:21:55.896Z,95555.2
2018-12-19T05:22:58.316Z,95560.2
2018-12-19T05:24:00.462Z,95559.2
2018-12-19T05:25:02.889Z,95556.6
2018-12-19T05:26:05.037Z,95564.3
2018-12-19T05:27:07.489Z,95564.6
2018-12-19T05:28:09.912Z,95563.3
2018-12-19T05:29:12.062Z,95565.8
2018-12-19T05:30:14.481Z,95568.8
2018-12-19T05:31:16.899Z,95566.3
2018-12-19T05:32:19.323Z,95565.8
2018-12-19T05:33:21.751Z,95561.5
2018-12-19T05:34:24.182Z,95571.3
2018-12-19T05:35:26.609Z,95564.5
2018-12-19T05:36:29.043Z,95561.8
2018-12-19T05:37:31.203Z,95557.3
2018-12-19T05:38:33.363Z,95559
2018-12-19T05:39:35.256Z,95559.8
2018-12-19T05:40:37.673Z,95557
2018-12-19T05:41:40.102Z,95558.3
2018-12-19T05:42:42.517Z,95556.1
2018-12-19T05:43:44.674Z,95555.9
2018-12-19T05:44:47.089Z,95551.8
2018-12-19T05:45:49.514Z,95557.2
2018-12-19T05:46:51.943Z,95561.3
2018-12-19T05:47:54.101Z,95559.4
2018-12-19T05:48:56.521Z,95559.8
2018-12-19T05:49:58.679Z,95558.4
2018-12-19T05:51:01.144Z,95565.6
2018-12-19T05:52:03.564Z,95559.5
2018-12-19T05:53:06.022Z,95563.6
2018-12-19T05:54:08.467Z,95568.5
2018-12-19T05:55:10.892Z,95561.6
2018-12-19T05:56:13.322Z,95561.9
2018-12-19T05:57:15.759Z,95563.4
2018-12-19T05:58:17.909Z,95567.5
2018-12-19T05:59:20.341Z,95564.2
2018-12-19T06:00:22.218Z,95563.4
2018-12-19T06:01:24.661Z,95564.2
2018-12-19T06:02:27.083Z,95566.4
2018-12-19T06:03:29.519Z,95566.5
2018-12-19T06:04:31.401Z,95567.7
2018-12-19T06:05:33.829Z,95569.9
2018-12-19T06:06:36.021Z,95572.5
2018-12-19T06:07:38.199Z,95569.7
2018-12-19T06:08:40.633Z,95572.9
2018-12-19T06:09:43.054Z,95574.2
2018-12-19T06:10:45.197Z,95576.6
2018-12-19T06:11:47.618Z,95580.1
2018-12-19T06:12:49.762Z,95576.9
2018-12-19T06:13:52.212Z,95576.3
2018-12-19T06:14:54.633Z,95576
2018-12-19T06:15:56.779Z,95578
2018-12-19T06:16:58.951Z,95575.8
2018-12-19T06:18:01.102Z,95579.4
2018-12-19T06:19:03.539Z,95575.9
2018-12-19T06:20:05.693Z,95579.5
2018-12-19T06:21:08.120Z,95580.5
2018-12-19T06:22:10.593Z,95576.7
2018-12-19T06:23:13.021Z,95576.1
2018-12-19T06:24:15.146Z,95579.4
2018-12-19T06:25:17.575Z,95577.6
2018-12-19T06:26:19.997Z,95574.6
2018-12-19T06:27:22.158Z,95571.5
2018-12-19T06:28:24.768Z,95575.9
2018-12-19T06:29:27.289Z,95573.5
2018-12-19T06:30:29.207Z,95571.2
2018-12-19T06:32:00.950Z,95571.7
2018-12-19T06:33:02.841Z,95571.7
2018-12-19T06:34:05.272Z,95572.5
2018-12-19T06:35:07.702Z,95568.6
2018-12-19T06:36:10.127Z,95565.9
2018-12-19T06:37:12.291Z,95564.6
2018-12-19T06:38:14.463Z,95571.4
2018-12-19T06:39:16.895Z,95565.2
2018-12-19T06:40:19.063Z,95568.1
2018-12-19T06:41:21.210Z,95568.9
2018-12-19T06:42:23.353Z,95569
2018-12-19T06:43:25.771Z,95564.4
2018-12-19T06:44:27.942Z,95566.3
2018-12-19T06:45:30.134Z,95563.9
2018-12-19T06:46:32.565Z,95565.5
2018-12-19T06:47:34.736Z,95573.1
2018-12-19T06:48:37.173Z,95576.3
2018-12-19T06:49:39.308Z,95577.6
2018-12-19T06:50:41.730Z,95578.7
2018-12-19T06:51:44.162Z,95579.7
2018-12-19T06:52:46.304Z,95580.5
2018-12-19T06:53:48.731Z,95578
2018-12-19T06:54:50.351Z,95577.1
2018-12-19T06:55:52.777Z,95582.8
2018-12-19T06:56:54.643Z,95585.2
2018-12-19T06:57:56.540Z,95584.9
2018-12-19T06:58:58.961Z,95583.2
2018-12-19T07:00:00.855Z,95590.6
2018-12-19T07:01:02.792Z,95583.3
2018-12-19T07:02:05.211Z,95584.9
2018-12-19T07:03:07.647Z,95587.9
2018-12-19T07:04:09.532Z,95582.9
2018-12-19T07:05:11.964Z,95589.5
2018-12-19T07:06:13.835Z,95585.5
2018-12-19T07:07:16.273Z,95587.6
2018-12-19T07:08:18.443Z,95585.5
2018-12-19T07:09:20.602Z,95590.3
2018-12-19T07:10:23.029Z,95584.6
2018-12-19T07:11:25.461Z,95588.3
2018-12-19T07:12:27.593Z,95589.1
2018-12-19T07:13:30.037Z,95593.7
2018-12-19T07:14:32.198Z,95590.9
2018-12-19T07:15:34.632Z,95589.6
2018-12-19T07:16:43.264Z,95590.6
2018-12-19T07:17:42.997Z,95590.8
2018-12-19T07:18:44.873Z,95592.2
2018-12-19T07:19:46.754Z,95589.5
2018-12-19T07:20:49.175Z,95593.4
2018-12-19T07:21:51.625Z,95599.6
2018-12-19T07:22:53.790Z,95598.7
2018-12-19T07:23:55.652Z,95596.2
2018-12-19T07:24:57.783Z,95594.6
2018-12-19T07:26:00.221Z,95589.5
2018-12-19T07:27:02.426Z,95591.5
2018-12-19T07:28:04.563Z,95597.6
2018-12-19T07:29:06.448Z,95600.7
2018-12-19T07:30:08.306Z,95601.3
2018-12-19T07:31:10.731Z,95602.7
2018-12-19T07:32:12.891Z,95605
2018-12-19T07:33:14.771Z,95605.8
2018-12-19T07:34:17.209Z,95605.5
2018-12-19T07:35:19.376Z,95610.1
2018-12-19T07:36:21.505Z,95610.2
2018-12-19T07:37:23.394Z,95610.3
2018-12-19T07:38:25.842Z,95610.4
2018-12-19T07:39:27.449Z,95613.5
2018-12-19T07:40:29.595Z,95613.9
2018-12-19T07:41:32.022Z,95617.1
2018-12-19T07:42:34.189Z,95614.2
2018-12-19T07:43:36.637Z,95613.9
2018-12-19T07:44:38.793Z,95617
2018-12-19T07:45:40.679Z,95615.4
2018-12-19T07:46:43.107Z,95620.2
2018-12-19T07:47:45.265Z,95617.6
2018-12-19T07:48:46.885Z,95619.3
2018-12-19T07:49:49.307Z,95617.5
2018-12-19T07:50:51.762Z,95617.3
2018-12-19T07:51:54.209Z,95617.3
2018-12-19T07:52:56.666Z,95611.9
2018-12-19T07:53:58.849Z,95612.4
2018-12-19T07:55:01.280Z,95609.9
2018-12-19T07:56:03.165Z,95616.4
2018-12-19T07:57:05.595Z,95617.3
2018-12-19T07:58:07.739Z,95617
2018-12-19T07:59:10.169Z,95616.8
2018-12-19T08:00:12.603Z,95620.4
2018-12-19T08:01:14.460Z,95621.8
2018-12-19T08:02:16.901Z,95621.5
2018-12-19T08:03:19.328Z,95622.6
2018-12-19T08:04:21.749Z,95626.6
2018-12-19T08:06:28.886Z,95626.1
2018-12-19T08:07:31.041Z,95626.4
2018-12-19T08:08:33.207Z,95624
2018-12-19T08:09:35.633Z,95628.1
2018-12-19T08:10:38.079Z,95629.9
2018-12-19T08:11:40.223Z,95629.5
2018-12-19T08:12:41.811Z,95630.7
2018-12-19T08:13:44.239Z,95632.6
2018-12-19T08:14:46.716Z,95627.3
2018-12-19T08:15:49.171Z,95629
2018-12-19T08:16:51.614Z,95630.7
2018-12-19T08:17:54.049Z,95628.1
2018-12-19T08:18:56.469Z,95629
2018-12-19T08:19:58.650Z,95628
2018-12-19T08:21:01.102Z,95624.8
2018-12-19T08:22:03.503Z,95621.5
2018-12-19T08:23:05.927Z,95623.3
2018-12-19T08:24:08.346Z,95621.4
2018-12-19T08:25:10.252Z,95626.3
2018-12-19T08:26:12.680Z,95625.2
2018-12-19T08:27:15.100Z,95628.5
2018-12-19T08:28:17.522Z,95625.1
2018-12-19T08:29:19.663Z,95627.3
2018-12-19T08:30:22.094Z,95625.6
2018-12-19T08:31:24.245Z,95631.1
2018-12-19T08:32:26.413Z,95632.8
2018-12-19T08:33:28.566Z,95632.2
2018-12-19T08:34:30.714Z,95633.4
2018-12-19T08:35:32.591Z,95637.2
2018-12-19T08:36:34.753Z,95637.2
2018-12-19T08:37:37.182Z,95633
2018-12-19T08:38:39.336Z,95634
2018-12-19T08:39:41.491Z,95635.8
2018-12-19T08:40:43.662Z,95632.6
2018-12-19T08:41:45.817Z,95634
2018-12-19T08:42:47.966Z,95634.1
2018-12-19T08:43:50.132Z,95635.3
2018-12-19T08:44:52.571Z,95634
2018-12-19T08:45:54.747Z,95634.5
2018-12-19T08:46:56.635Z,95636.7
2018-12-19T08:47:59.062Z,95638.3
2018-12-19T08:49:01.493Z,95639.3
2018-12-19T08:50:05.023Z,95637.2
2018-12-19T08:51:07.222Z,95638
2018-12-19T08:52:09.384Z,95635.7
2018-12-19T08:53:11.830Z,95637.8
2018-12-19T08:54:14.253Z,95638.5
2018-12-19T08:55:16.421Z,95634.8
2018-12-19T08:56:18.600Z,95635.4
2018-12-19T08:57:21.081Z,95637.7
2018-12-19T08:58:23.514Z,95634.1
2018-12-19T08:59:25.674Z,95632.2
2018-12-19T09:00:28.101Z,95634.3
2018-12-19T09:01:30.258Z,95632.8
2018-12-19T09:02:32.421Z,95629.3
2018-12-19T09:03:34.586Z,95629.6
2018-12-19T09:04:36.752Z,95632.5
2018-12-19T09:05:39.177Z,95631.3
2018-12-19T09:06:41.689Z,95625.6
2018-12-19T09:07:44.267Z,95632.6
2018-12-19T09:08:46.688Z,95635.2
2018-12-19T09:09:49.136Z,95636.4
2018-12-19T09:10:51.013Z,95634.6
2018-12-19T09:11:53.442Z,95634.9
2018-12-19T09:12:55.868Z,95632.8
2018-12-19T09:13:58.298Z,95631.2
2018-12-19T09:15:02.007Z,95630.4
2018-12-19T09:16:04.426Z,95630.8
2018-12-19T09:17:06.572Z,95630.5
2018-12-19T09:18:08.718Z,95633.9
2018-12-19T09:19:10.869Z,95633.2
2018-12-19T09:20:13.302Z,95634.5
2018-12-19T09:21:15.466Z,95633.9
2018-12-19T09:22:17.610Z,95641.5
2018-12-19T09:23:20.033Z,95634.2
2018-12-19T09:24:22.170Z,95636.3
2018-12-19T09:25:24.328Z,95634.1
2018-12-19T09:26:26.495Z,95632
2018-12-19T09:27:28.662Z,95627.9
2018-12-19T09:28:31.096Z,95628.7
2018-12-19T09:29:33.237Z,95630.3
2018-12-19T09:30:35.392Z,95626.1
2018-12-19T09:31:37.811Z,95629.9
2018-12-19T09:32:40.240Z,95629.9
2018-12-19T09:33:42.411Z,95630.5
2018-12-19T09:34:44.841Z,95634
2018-12-19T09:35:47.261Z,95627.4
2018-12-19T09:36:49.407Z,95626.4
2018-12-19T09:37:51.291Z,95627.8
2018-12-19T09:38:53.202Z,95625.9
2018-12-19T09:39:55.621Z,95631.5
2018-12-19T09:40:57.781Z,95635.6
2018-12-19T09:41:59.938Z,95635.8
2018-12-19T09:43:02.099Z,95640.7
2018-12-19T09:44:03.981Z,95640.4
2018-12-19T09:45:06.225Z,95641.8
2018-12-19T09:46:08.670Z,95644
2018-12-19T09:47:11.089Z,95642.4
2018-12-19T09:48:13.232Z,95646.5
2018-12-19T09:49:15.641Z,95647.9
2018-12-19T09:50:17.790Z,95646.9
2018-12-19T09:51:20.212Z,95645.3
2018-12-19T09:52:22.639Z,95643.4
2018-12-19T09:53:25.057Z,95642.9
2018-12-19T09:54:27.199Z,95636.4
2018-12-19T09:55:29.629Z,95635.7
2018-12-19T09:56:31.769Z,95634.8
2018-12-19T09:57:33.629Z,95631.1
2018-12-19T09:58:36.051Z,95632.7
2018-12-19T09:59:38.218Z,95628.2
2018-12-19T10:00:40.382Z,95622.9
2018-12-19T10:01:42.242Z,95625.1
2018-12-19T10:02:44.657Z,95623
2018-12-19T10:03:46.829Z,95624.8
2018-12-19T10:04:49.067Z,95626.6
2018-12-19T10:05:51.247Z,95627.3
2018-12-19T10:06:53.398Z,95627
2018-12-19T10:08:24.855Z,95627.4
2018-12-19T10:09:27.291Z,95624
2018-12-19T10:10:29.722Z,95626.5
2018-12-19T10:11:32.150Z,95624.1
2018-12-19T10:12:34.572Z,95629.1
2018-12-19T10:13:36.500Z,95624
2018-12-19T10:14:38.661Z,95621.8
2018-12-19T10:15:40.818Z,95615.4
2018-12-19T10:16:43.239Z,95610.7
2018-12-19T10:17:45.667Z,95611.8
2018-12-19T10:18:48.096Z,95609.9
2018-12-19T10:19:50.522Z,95608.1
2018-12-19T10:20:52.961Z,95607.6
2018-12-19T10:21:55.111Z,95602.1
2018-12-19T10:22:57.535Z,95596.9
2018-12-19T10:23:59.731Z,95590.9
2018-12-19T10:25:01.898Z,95595.3
2018-12-19T10:26:04.331Z,95589.1
2018-12-19T10:27:06.772Z,95586.9
2018-12-19T10:28:09.219Z,95584.3
2018-12-19T10:29:11.081Z,95586
2018-12-19T10:30:13.517Z,95586.3
2018-12-19T10:31:15.979Z,95586.3
2018-12-19T10:32:18.112Z,95583.8
2018-12-19T10:33:20.526Z,95586.9
2018-12-19T10:34:22.691Z,95581
2018-12-19T10:35:24.842Z,95589.9
2018-12-19T10:36:26.746Z,95583.1
2018-12-19T10:37:29.242Z,95581.2
2018-12-19T10:38:31.446Z,95575.3
2018-12-19T10:39:33.302Z,95570.8
2018-12-19T10:40:35.735Z,95579.9
2018-12-19T10:41:38.148Z,95581.9
2018-12-19T10:42:40.575Z,95590
2018-12-19T10:43:43.272Z,95591.6
2018-12-19T10:44:45.695Z,95584.9
2018-12-19T10:45:47.842Z,95584.6
2018-12-19T10:46:50.005Z,95583.3
2018-12-19T10:47:52.358Z,95578.5
2018-12-19T10:48:54.769Z,95580.1
2018-12-19T10:49:56.649Z,95578.5
2018-12-19T10:50:59.129Z,95575.4
2018-12-19T10:52:01.266Z,95578.2
2018-12-19T10:53:03.696Z,95579.9
2018-12-19T10:54:05.859Z,95582.7
2018-12-19T10:55:08.040Z,95574.7
2018-12-19T10:56:10.471Z,95573
2018-12-19T10:57:12.645Z,95574.8
2018-12-19T10:58:15.119Z,95572.6
2018-12-19T10:59:17.543Z,95569.9
2018-12-19T11:00:20.002Z,95572.2
2018-12-19T11:01:22.160Z,95569.7
2018-12-19T11:02:24.026Z,95563.5
2018-12-19T11:03:26.163Z,95563.8
2018-12-19T11:04:28.578Z,95562.1
2018-12-19T11:05:31.000Z,95560.5
2018-12-19T11:06:33.421Z,95558.7
2018-12-19T11:07:35.850Z,95557.7
2018-12-19T11:08:38.281Z,95559
2018-12-19T11:09:40.703Z,95561
2018-12-19T11:10:42.838Z,95555.8
2018-12-19T11:11:45.283Z,95558.1
2018-12-19T11:12:47.650Z,95558.3
2018-12-19T11:13:50.093Z,95554.8
2018-12-19T11:14:52.522Z,95551.3
2018-12-19T11:15:54.959Z,95551
2018-12-19T11:16:57.384Z,95549.6
2018-12-19T11:17:59.845Z,95551.5
2018-12-19T11:19:02.272Z,95550.2
2018-12-19T11:20:04.694Z,95554.3
2018-12-19T11:21:07.137Z,95552.6
2018-12-19T11:22:09.282Z,95554
2018-12-19T11:23:11.440Z,95550.6
2018-12-19T11:24:13.332Z,95550
2018-12-19T11:25:15.202Z,95545.5
2018-12-19T11:26:17.362Z,95542.5
2018-12-19T11:27:19.787Z,95541
2018-12-19T11:28:21.921Z,95536.5
2018-12-19T11:29:24.172Z,95538.6
2018-12-19T11:30:26.080Z,95532.5
2018-12-19T11:31:27.952Z,95531.6
2018-12-19T11:32:29.862Z,95531.8
2018-12-19T11:33:31.755Z,95527.8
2018-12-19T11:34:33.352Z,95527.3
2018-12-19T11:35:35.783Z,95532
2018-12-19T11:36:38.208Z,95527.6
2018-12-19T11:37:40.392Z,95525.6
2018-12-19T11:38:42.822Z,95526.6
2018-12-19T11:39:44.970Z,95523
2018-12-19T11:40:47.451Z,95526.3
2018-12-19T11:41:49.933Z,95523.7
2018-12-19T11:42:52.108Z,95523
2018-12-19T11:43:54.266Z,95515.6
2018-12-19T11:44:57.908Z,95516.1
2018-12-19T11:46:00.046Z,95522.9
2018-12-19T11:47:01.916Z,95522.9
2018-12-19T11:48:04.076Z,95520.4
2018-12-19T11:49:06.494Z,95518.8
2018-12-19T11:50:08.646Z,95508.4
2018-12-19T11:51:11.077Z,95503.1
2018-12-19T11:52:13.490Z,95500.8
2018-12-19T11:53:15.654Z,95500.3
2018-12-19T11:54:18.102Z,95505.9
2018-12-19T11:55:19.984Z,95501.8
2018-12-19T11:56:22.411Z,95497.7
2018-12-19T11:57:24.880Z,95501.2
2018-12-19T11:58:27.119Z,95496.8
2018-12-19T11:59:28.987Z,95496.4
2018-12-19T12:00:31.150Z,95498.9
2018-12-19T12:01:33.571Z,95492.1
2018-12-19T12:02:35.993Z,95491.2
2018-12-19T12:03:38.423Z,95494.9
2018-12-19T12:04:40.555Z,95489.6
2018-12-19T12:05:43.053Z,95488.6
2018-12-19T12:06:45.500Z,95490.9
2018-12-19T12:07:47.933Z,95492.8
2018-12-19T12:08:50.073Z,95487.5
2018-12-19T12:09:52.505Z,95490
2018-12-19T12:10:54.933Z,95490.6
2018-12-19T12:11:57.085Z,95484.9
2018-12-19T12:12:59.501Z,95483.9
2018-12-19T12:14:01.938Z,95483.9
2018-12-19T12:15:04.356Z,95481.3
2018-12-19T12:16:06.255Z,95482.4
2018-12-19T12:17:09.760Z,95477.6
2018-12-19T12:18:11.901Z,95481.7
2018-12-19T12:19:14.074Z,95483.7
2018-12-19T12:20:16.505Z,95483.9
2018-12-19T12:21:18.654Z,95484.7
2018-12-19T12:22:21.074Z,95486.8
2018-12-19T12:23:23.505Z,95481.8
2018-12-19T12:24:25.941Z,95486.2
2018-12-19T12:25:28.373Z,95488.8
2018-12-19T12:26:30.806Z,95486.8
2018-12-19T12:27:33.235Z,95483.4
2018-12-19T12:28:35.373Z,95479.9
2018-12-19T12:29:37.554Z,95480.2
2018-12-19T12:30:39.995Z,95478.4
2018-12-19T12:31:42.431Z,95482.8
2018-12-19T12:32:44.861Z,95482.9
2018-12-19T12:33:47.295Z,95482.4
2018-12-19T12:34:49.733Z,95482.9
2018-12-19T12:35:52.163Z,95484.8
2018-12-19T12:36:54.595Z,95490.9
2018-12-19T12:37:57.020Z,95489.8
2018-12-19T12:38:59.472Z,95490.1